• Join FlightAware (Why Join?)
  • Login
  • US Flag 
02:43AM EST


 

Airport Tracker/Info


-or-


 

Live Flight TrackerFlight Track Log ✈ DAL6032 ✈ 30-Apr-2013 ✈ KMEM - KCMH

Flight Track Log - Related Links

Times and Time Zones

All times are in EDT time to prevent confusion due to time zone crossing. See the DAL6032 flight status page for this flight to view local times or setup timezone preferences in your user account.

Time Position Orientation Groundspeed Altitude Reporting Facility
EDT Latitude Longitude Course Direction KTS MPH feet Rate Location/Type
08:59PM 35.0333 -89.9667 73° East 170 196 1,000  Level KMEM
08:59PM 35.0000 -89.9667 180° South 168 193 2,600 1,920 Climbing KMEM
09:00PM 34.9333 -89.9500 168° South 247 284 4,300 2,220 Climbing KMEM
09:01PM 34.9333 -89.8667 90° East 265 305 6,800 2,400 Climbing KMEM
09:02PM 35.1520 -89.4624 72° East  Level FlightAware Approximate
09:03PM 35.1855 -89.3375 72° East  Level FlightAware Approximate
09:03PM 34.9911 -89.7108 66° East 309 356 11,000  Level Memphis Center
09:04PM 35.2178 -89.2121 73° East  Level FlightAware Approximate
09:04PM 35.0303 -89.6167 63° Northeast 309 356 12,600  Level Memphis Center
09:05PM 35.0753 -89.5147 62° Northeast 320 368 14,200 1,560 Climbing Memphis Center
09:06PM 35.1206 -89.4100 62° Northeast 339 390 15,800 1,560 Climbing Memphis Center
09:07PM 35.1656 -89.3056 62° Northeast 346 398 17,400 1,560 Climbing Memphis Center
09:08PM 35.2147 -89.1981 61° Northeast 351 404 19,000 1,440 Climbing Memphis Center
09:09PM 35.2639 -89.1083 56° Northeast 351 404 20,300 1,440 Climbing Memphis Center
09:10PM 35.3275 -89.0056 53° Northeast 362 417 21,900 1,500 Climbing Memphis Center
09:11PM 35.3931 -88.9078 51° Northeast 368 423 23,400 1,560 Climbing Memphis Center
09:12PM 35.4628 -88.7969 52° Northeast 373 429 25,100 1,620 Climbing Memphis Center
09:13PM 35.5281 -88.6964 51° Northeast 373 429 26,700 900 Climbing Memphis Center
09:14PM 35.5975 -88.5903 51° Northeast 381 438 27,000 120 Climbing Memphis Center
09:15PM 35.6667 -88.4764 53° Northeast 397 457 27,000  Level Memphis Center
09:16PM 35.7442 -88.3569 51° Northeast 422 486 27,000 120 Level Memphis Center
09:17PM 35.8214 -88.2372 51° Northeast 437 503 27,300 660 Climbing Memphis Center
09:18PM 35.8967 -88.1225 51° Northeast 434 499 28,400 960 Climbing Memphis Center
09:19PM 35.9633 -88.0181 52° Northeast 428 493 29,300 900 Climbing Memphis Center
09:20PM 36.0361 -87.9006 53° Northeast 428 493 30,300 840 Climbing Memphis Center
09:21PM 36.1108 -87.7828 52° Northeast 428 493 31,000 300 Climbing Memphis Center
09:22PM 36.1856 -87.6619 53° Northeast 436 502 31,000  Level Memphis Center
09:23PM 36.2642 -87.5358 52° Northeast 454 522 31,000  Level Memphis Center
09:24PM 36.3503 -87.3936 53° Northeast 461 531 31,000  Level Memphis Center
09:25PM 36.4308 -87.2697 51° Northeast 461 531 31,000  Level Memphis Center
09:26PM 36.5086 -87.1400 53° Northeast 461 531 31,000  Level Memphis Center
09:27PM 36.5867 -87.0103 53° Northeast 461 531 31,000  Level Memphis Center
09:28PM 36.6644 -86.8856 52° Northeast 466 536 31,000  Level Memphis Center
09:29PM 36.7342 -86.7686 53° Northeast 466 536 31,000  Level Memphis Center
09:30PM 36.8117 -86.6408 53° Northeast 466 536 31,000  Level Memphis Center
09:32PM 36.9636 -86.4181 49° Northeast 463 533 31,000  Level Indianapolis Center
09:33PM 37.0758 -86.3375 30° Northeast 459 528 31,000  Level Indianapolis Center
09:34PM 37.1886 -86.2553 30° Northeast 463 533 31,000  Level Indianapolis Center
09:35PM 37.3006 -86.1731 30° Northeast 464 534 31,000  Level Indianapolis Center
09:36PM 37.4142 -86.0903 30° Northeast 466 536 31,000  Level Indianapolis Center
09:37PM 37.5261 -86.0058 31° Northeast 465 535 31,000  Level Indianapolis Center
09:38PM 37.6456 -85.9200 30° Northeast 463 533 31,000  Level Indianapolis Center
09:39PM 37.7567 -85.8375 30° Northeast 464 534 31,000  Level Indianapolis Center
09:40PM 37.8667 -85.7547 31° Northeast 461 531 31,000  Level Indianapolis Center
09:41PM 37.9775 -85.6736 30° Northeast 459 528 31,000  Level Indianapolis Center
09:42PM 38.0872 -85.5892 31° Northeast 461 531 31,000  Level Indianapolis Center
09:43PM 38.2150 -85.4747 35° Northeast 467 537 31,000  Level Indianapolis Center
09:44PM 38.3156 -85.3767 37° Northeast 461 531 31,000  Level Indianapolis Center
09:45PM 38.4183 -85.2786 37° Northeast 460 529 31,000 -300 Level Indianapolis Center
09:46PM 38.5192 -85.1833 36° Northeast 463 533 30,500 -1,620 Descending Indianapolis Center
09:47PM 38.6203 -85.0867 37° Northeast 457 526 27,700 -2,880 Descending Indianapolis Center
09:48PM 38.7236 -84.9875 37° Northeast 459 528 24,700 -1,860 Descending Indianapolis Center
09:49PM 38.8256 -84.8886 37° Northeast 459 528 24,000 -360 Descending Indianapolis Center
09:50PM 38.9322 -84.7861 37° Northeast 451 519 24,000  Level Indianapolis Center
09:51PM 39.0278 -84.6803 41° Northeast 451 519 24,000  Level Indianapolis Center
09:52PM 39.1022 -84.5464 54° Northeast 459 528 24,000 -480 Level Indianapolis Center
09:53PM 39.1767 -84.4131 54° Northeast 456 525 23,100 -900 Descending Indianapolis Center
09:54PM 39.2483 -84.2825 55° Northeast 444 511 22,200 -960 Descending Indianapolis Center
09:55PM 39.3139 -84.1500 57° Northeast 436 502 21,200 -1,020 Descending Indianapolis Center
09:56PM 39.3664 -84.0114 64° Northeast 427 491 20,200 -1,140 Descending Indianapolis Center
09:57PM 39.4183 -83.8750 64° Northeast 422 486 19,000 -2,220 Descending Indianapolis Center
09:58PM 39.4758 -83.7233 64° Northeast 402 463 15,800 -3,000 Descending Indianapolis Center
09:59PM 39.5144 -83.6228 64° Northeast 370 426 13,400 -2,580 Descending Indianapolis Center
10:00PM 39.5614 -83.4986 64° Northeast 369 425 11,000 -1,380 Descending Indianapolis Center
10:01PM 39.6153 -83.3914 57° Northeast 358 412 10,700 -540 Descending Indianapolis Center
10:02PM 39.6917 -83.3192 36° Northeast 370 426 10,000 -720 Descending Indianapolis Center
10:03PM 39.7094 -83.3031 35° Northeast 366 421 9,900  Descending Indianapolis Center
10:03PM 39.7742 -83.2450 35° Northeast 361 415 10,000  Climbing Indianapolis Center
10:04PM 39.7917 -83.2278 37° Northeast 364 419 9,900 -720 Descending Indianapolis Center
10:05PM 39.8631 -83.1639 34° Northeast 305 351 9,100 -2,220 Descending Indianapolis Center
10:06PM 39.9258 -83.1058 35° Northeast 278 320 5,400 -3,300 Descending Indianapolis Center
10:06PM 39.9756 -83.0594 36° Northeast 275 316 3,400 -2,400 Descending Indianapolis Center
10:07PM 39.9883 -83.0481 34° Northeast 277 319 3,000 -1,380 Descending Indianapolis Center